createdAt,value
2023-05-13T00:01:20.022Z,101886.80
2023-05-13T00:03:47.979Z,101884.00
2023-05-13T00:06:15.846Z,101872.60
2023-05-13T00:08:43.859Z,101881.40
2023-05-13T00:11:11.842Z,101879.60
2023-05-13T00:13:39.572Z,101880.40
2023-05-13T00:16:07.671Z,101878.00
2023-05-13T00:18:35.435Z,101875.80
2023-05-13T00:21:03.207Z,101876.40
2023-05-13T00:23:31.129Z,101876.60
2023-05-13T00:26:00.376Z,101880.20
2023-05-13T00:28:28.162Z,101880.20
2023-05-13T00:30:55.939Z,101883.00
2023-05-13T00:33:23.685Z,101881.80
2023-05-13T00:35:51.549Z,101880.00
2023-05-13T00:38:19.307Z,101876.60
2023-05-13T00:40:48.669Z,101883.00
2023-05-13T00:43:17.114Z,101871.60
2023-05-13T00:45:44.928Z,101870.80
2023-05-13T00:48:13.181Z,101873.40
2023-05-13T00:50:44.719Z,101871.80
2023-05-13T00:53:13.498Z,101876.80
2023-05-13T00:55:46.135Z,101873.00
2023-05-13T00:58:14.308Z,101874.80
2023-05-13T01:00:54.340Z,101881.80
2023-05-13T01:03:35.579Z,101879.80
2023-05-13T01:06:16.431Z,101880.80
2023-05-13T01:09:15.522Z,101885.00
2023-05-13T01:11:46.009Z,101883.20
2023-05-13T01:14:22.992Z,101886.20
2023-05-13T01:17:32.018Z,101886.40
2023-05-13T01:20:03.910Z,101887.20
2023-05-13T01:22:32.363Z,101881.60
2023-05-13T01:25:00.534Z,101888.20
2023-05-13T01:27:28.551Z,101889.00
2023-05-13T01:29:57.688Z,101887.40
2023-05-13T01:32:26.164Z,101887.40
2023-05-13T01:34:55.912Z,101883.60
2023-05-13T01:37:24.197Z,101884.20
2023-05-13T01:39:52.412Z,101887.00
2023-05-13T01:42:20.216Z,101888.20
2023-05-13T01:44:48.010Z,101887.80
2023-05-13T01:47:16.050Z,101891.60
2023-05-13T01:49:43.905Z,101892.80
2023-05-13T01:52:11.713Z,101893.00
2023-05-13T01:54:39.418Z,101893.80
2023-05-13T01:57:07.177Z,101887.00
2023-05-13T01:59:34.930Z,101883.40
2023-05-13T02:02:04.271Z,101890.80
2023-05-13T02:04:32.234Z,101890.80
2023-05-13T02:07:00.048Z,101896.00
2023-05-13T02:09:27.787Z,101891.40
2023-05-13T02:11:55.589Z,101895.60
2023-05-13T02:14:23.398Z,101895.80
2023-05-13T02:16:51.279Z,101900.80
2023-05-13T02:19:19.960Z,101902.00
2023-05-13T02:21:47.714Z,101897.00
2023-05-13T02:24:15.490Z,101892.60
2023-05-13T02:26:45.222Z,101891.40
2023-05-13T02:29:14.099Z,101892.20
2023-05-13T02:31:43.394Z,101891.00
2023-05-13T02:34:11.356Z,101894.60
2023-05-13T02:36:39.187Z,101898.20
2023-05-13T02:39:07.147Z,101894.60
2023-05-13T02:41:35.350Z,101897.00
2023-05-13T02:44:03.251Z,101901.00
2023-05-13T02:46:31.057Z,101894.40
2023-05-13T02:48:59.794Z,101894.00
2023-05-13T02:51:27.569Z,101898.20
2023-05-13T02:53:55.486Z,101892.40
2023-05-13T02:56:23.384Z,101896.00
2023-05-13T02:58:51.151Z,101890.80
2023-05-13T03:01:18.978Z,101889.80
2023-05-13T03:03:46.939Z,101891.40
2023-05-13T03:06:14.777Z,101888.00
2023-05-13T03:08:42.667Z,101894.00
2023-05-13T03:11:11.112Z,101891.60
2023-05-13T03:13:38.844Z,101890.60
2023-05-13T03:16:06.667Z,101891.80
2023-05-13T03:18:36.139Z,101893.60
2023-05-13T03:21:04.228Z,101892.00
2023-05-13T03:23:33.737Z,101893.00
2023-05-13T03:26:02.349Z,101896.00
2023-05-13T03:28:30.098Z,101897.60
2023-05-13T03:30:58.016Z,101892.00
2023-05-13T03:33:25.780Z,101885.60
2023-05-13T03:35:53.580Z,101888.00
2023-05-13T03:38:21.454Z,101891.80
2023-05-13T03:40:49.260Z,101885.60
2023-05-13T03:43:17.066Z,101886.60
2023-05-13T03:45:48.544Z,101887.80
2023-05-13T03:48:16.468Z,101875.60
2023-05-13T03:50:44.224Z,101882.60
2023-05-13T03:53:12.676Z,101882.20
2023-05-13T03:55:40.569Z,101879.00
2023-05-13T03:58:16.553Z,101881.60
2023-05-13T04:00:48.226Z,101878.80
2023-05-13T04:03:17.470Z,101880.40
2023-05-13T04:05:49.124Z,101882.00
2023-05-13T04:08:17.045Z,101885.80
2023-05-13T04:10:45.328Z,101879.00
2023-05-13T04:13:13.153Z,101881.60
2023-05-13T04:15:40.938Z,101885.00
2023-05-13T04:18:09.841Z,101882.20
2023-05-13T04:20:39.783Z,101881.40
2023-05-13T04:23:07.779Z,101884.60
2023-05-13T04:25:39.389Z,101885.00
2023-05-13T04:28:07.468Z,101884.60
2023-05-13T04:30:36.578Z,101888.60
2023-05-13T04:33:04.744Z,101888.00
2023-05-13T04:35:32.691Z,101886.60
2023-05-13T04:38:00.484Z,101885.20
2023-05-13T04:40:28.234Z,101886.40
2023-05-13T04:42:56.084Z,101890.80
2023-05-13T04:45:26.668Z,101886.80
2023-05-13T04:47:56.187Z,101884.60
2023-05-13T04:50:26.489Z,101885.60
2023-05-13T04:52:56.544Z,101889.40
2023-05-13T04:55:26.744Z,101887.20
2023-05-13T04:57:55.713Z,101879.20
2023-05-13T05:00:24.270Z,101885.20
2023-05-13T05:02:52.199Z,101882.80
2023-05-13T05:05:19.973Z,101884.00
2023-05-13T05:07:47.737Z,101885.20
2023-05-13T05:10:15.724Z,101890.00
2023-05-13T05:12:43.470Z,101891.00
2023-05-13T05:15:15.849Z,101885.80
2023-05-13T05:17:45.426Z,101886.20
2023-05-13T05:20:13.814Z,101887.40
2023-05-13T05:22:42.321Z,101887.40
2023-05-13T05:25:11.820Z,101884.80
2023-05-13T05:27:40.276Z,101886.20
2023-05-13T05:30:10.982Z,101891.60
2023-05-13T05:32:38.972Z,101888.40
2023-05-13T05:35:07.954Z,101891.80
2023-05-13T05:37:36.724Z,101893.60
2023-05-13T05:40:05.664Z,101895.40
2023-05-13T05:42:33.472Z,101896.00
2023-05-13T05:45:01.547Z,101897.60
2023-05-13T05:47:29.454Z,101892.20
2023-05-13T05:49:57.314Z,101892.20
2023-05-13T05:52:25.270Z,101890.60
2023-05-13T05:54:53.043Z,101896.40
2023-05-13T05:57:20.853Z,101898.80
2023-05-13T05:59:48.797Z,101899.80
2023-05-13T06:02:16.807Z,101897.60
2023-05-13T06:04:45.010Z,101899.40
2023-05-13T06:07:13.559Z,101898.60
2023-05-13T06:09:41.352Z,101898.80
2023-05-13T06:12:09.412Z,101900.60
2023-05-13T06:14:37.323Z,101903.60
2023-05-13T06:17:05.877Z,101903.20
2023-05-13T06:19:34.310Z,101899.60
2023-05-13T06:22:03.942Z,101896.80
2023-05-13T06:24:32.027Z,101900.80
2023-05-13T06:26:59.949Z,101898.40
2023-05-13T06:29:29.116Z,101899.00
2023-05-13T06:31:57.217Z,101900.20
2023-05-13T06:34:25.090Z,101897.40
2023-05-13T06:36:52.847Z,101900.60
2023-05-13T06:39:20.868Z,101899.60
2023-05-13T06:41:48.803Z,101896.80
2023-05-13T06:44:16.684Z,101899.20
2023-05-13T06:46:44.574Z,101901.40
2023-05-13T06:49:12.349Z,101902.00
2023-05-13T06:51:40.158Z,101904.00
2023-05-13T06:54:07.924Z,101901.60
2023-05-13T06:56:35.660Z,101896.40
2023-05-13T06:59:03.402Z,101904.00
2023-05-13T07:01:31.206Z,101902.60
2023-05-13T07:03:59.177Z,101899.20
2023-05-13T07:06:26.914Z,101900.00
2023-05-13T07:08:54.658Z,101896.80
2023-05-13T07:11:22.889Z,101899.40
2023-05-13T07:13:50.713Z,101896.20
2023-05-13T07:16:18.447Z,101889.60
2023-05-13T07:18:46.461Z,101889.80
2023-05-13T07:21:15.639Z,101890.00
2023-05-13T07:23:44.757Z,101889.00
2023-05-13T07:26:12.603Z,101892.40
2023-05-13T07:28:40.547Z,101890.60
2023-05-13T07:31:08.510Z,101892.00
2023-05-13T07:33:36.382Z,101887.60
2023-05-13T07:36:04.680Z,101884.20
2023-05-13T07:38:32.568Z,101883.60
2023-05-13T07:41:00.431Z,101886.40
2023-05-13T07:43:28.571Z,101884.20
2023-05-13T07:45:56.274Z,101877.80
2023-05-13T07:48:25.796Z,101874.20
2023-05-13T07:50:53.932Z,101880.60
2023-05-13T07:53:21.638Z,101875.60
2023-05-13T07:55:49.396Z,101868.20
2023-05-13T07:58:18.688Z,101869.20
2023-05-13T08:00:46.550Z,101872.80
2023-05-13T08:03:14.562Z,101873.80
2023-05-13T08:05:42.684Z,101867.20
2023-05-13T08:08:10.614Z,101868.60
2023-05-13T08:10:38.385Z,101869.80
2023-05-13T08:13:06.218Z,101869.40
2023-05-13T08:15:33.997Z,101873.80
2023-05-13T08:18:01.785Z,101877.00
2023-05-13T08:20:30.104Z,101876.00
2023-05-13T08:22:58.871Z,101876.00
2023-05-13T08:25:26.752Z,101876.40
2023-05-13T08:27:54.622Z,101880.20
2023-05-13T08:30:22.698Z,101874.60
2023-05-13T08:32:50.557Z,101875.60
2023-05-13T08:35:18.368Z,101876.20
2023-05-13T08:37:46.136Z,101878.80
2023-05-13T08:40:15.297Z,101879.40
2023-05-13T08:42:46.365Z,101878.00
2023-05-13T08:45:16.665Z,101876.20
2023-05-13T08:47:54.806Z,101879.00
2023-05-13T08:50:23.289Z,101874.60
2023-05-13T08:52:54.190Z,101875.20
2023-05-13T08:55:24.312Z,101874.80
2023-05-13T08:57:53.153Z,101875.00
2023-05-13T09:00:21.863Z,101872.80
2023-05-13T09:02:51.357Z,101875.80
2023-05-13T09:05:21.625Z,101871.80
2023-05-13T09:07:49.750Z,101872.00
2023-05-13T09:10:18.314Z,101873.60
2023-05-13T09:12:53.308Z,101865.60
2023-05-13T09:15:26.996Z,101869.20
2023-05-13T09:18:02.664Z,101868.40
2023-05-13T09:20:32.207Z,101872.80
2023-05-13T09:23:07.554Z,101876.40
2023-05-13T09:25:37.400Z,101875.20
2023-05-13T09:28:07.988Z,101872.00
2023-05-13T09:30:41.352Z,101873.00
2023-05-13T09:33:22.731Z,101872.80
2023-05-13T09:35:53.705Z,101869.80
2023-05-13T09:38:31.667Z,101867.20
2023-05-13T09:41:02.805Z,101865.20
2023-05-13T09:43:34.485Z,101860.40
2023-05-13T09:46:04.936Z,101865.80
2023-05-13T09:48:34.461Z,101864.80
2023-05-13T09:51:02.407Z,101867.20
2023-05-13T09:53:31.715Z,101861.00
2023-05-13T09:56:00.717Z,101865.00
2023-05-13T09:58:30.919Z,101858.20
2023-05-13T10:00:59.290Z,101856.40
2023-05-13T10:03:29.411Z,101854.20
2023-05-13T10:06:02.284Z,101854.00
2023-05-13T10:08:31.547Z,101846.40
2023-05-13T10:10:59.834Z,101848.80
2023-05-13T10:13:31.697Z,101848.00
2023-05-13T10:16:00.258Z,101847.20
2023-05-13T10:18:29.364Z,101853.60
2023-05-13T10:20:58.258Z,101850.60
2023-05-13T10:23:26.710Z,101854.20
2023-05-13T10:25:56.109Z,101847.80
2023-05-13T10:28:26.693Z,101844.40
2023-05-13T10:30:54.833Z,101844.00
2023-05-13T10:33:22.985Z,101839.60
2023-05-13T10:36:21.357Z,101837.40
2023-05-13T10:39:27.638Z,101834.00
2023-05-13T10:42:38.439Z,101836.40
2023-05-13T10:45:08.339Z,101837.80
2023-05-13T10:47:37.329Z,101834.20
2023-05-13T10:50:26.055Z,101832.00
2023-05-13T10:52:58.798Z,101828.20
2023-05-13T10:55:28.322Z,101828.20
2023-05-13T10:58:18.413Z,101823.40
2023-05-13T11:00:46.263Z,101829.00
2023-05-13T11:03:31.878Z,101832.60
2023-05-13T11:06:23.963Z,101828.80
2023-05-13T11:08:55.959Z,101828.60
2023-05-13T11:11:31.397Z,101827.60
2023-05-13T11:14:11.419Z,101830.80
2023-05-13T11:16:39.508Z,101828.20
2023-05-13T11:19:29.834Z,101829.80
2023-05-13T11:22:13.157Z,101833.00
2023-05-13T11:24:44.494Z,101824.00
2023-05-13T11:27:21.204Z,101820.40
2023-05-13T11:29:55.632Z,101819.00
2023-05-13T11:32:52.099Z,101821.20
2023-05-13T11:35:27.598Z,101814.40
2023-05-13T11:37:59.134Z,101814.60
2023-05-13T11:40:34.228Z,101814.20
2023-05-13T11:43:05.247Z,101814.00
2023-05-13T11:45:38.454Z,101808.80
2023-05-13T11:48:24.320Z,101811.40
2023-05-13T11:50:53.887Z,101807.40
2023-05-13T11:53:22.977Z,101803.20
2023-05-13T11:55:51.885Z,101806.40
2023-05-13T11:58:21.658Z,101805.20
2023-05-13T12:00:49.796Z,101809.60
2023-05-13T12:03:17.620Z,101809.80
2023-05-13T12:05:45.487Z,101805.00
2023-05-13T12:08:13.432Z,101812.40
2023-05-13T12:10:45.185Z,101818.80
2023-05-13T12:13:13.220Z,101820.40
2023-05-13T12:15:42.543Z,101820.20
2023-05-13T12:18:10.549Z,101820.80
2023-05-13T12:20:38.456Z,101812.80
2023-05-13T12:23:06.635Z,101810.00
2023-05-13T12:25:40.365Z,101815.20
2023-05-13T12:28:10.780Z,101813.00
2023-05-13T12:30:42.537Z,101815.20
2023-05-13T12:33:16.789Z,101814.80
2023-05-13T12:35:48.594Z,101816.00
2023-05-13T12:38:20.020Z,101812.00
2023-05-13T12:40:49.568Z,101812.00
2023-05-13T12:43:19.731Z,101818.60
2023-05-13T12:45:54.889Z,101817.60
2023-05-13T12:48:26.272Z,101818.20
2023-05-13T12:50:54.164Z,101819.80
2023-05-13T12:53:21.940Z,101813.80
2023-05-13T12:55:49.715Z,101823.80
2023-05-13T12:58:17.676Z,101817.80
2023-05-13T13:00:46.317Z,101813.00
2023-05-13T13:03:14.350Z,101810.80
2023-05-13T13:05:42.240Z,101813.40
2023-05-13T13:08:09.988Z,101814.80
2023-05-13T13:10:37.815Z,101812.40
2023-05-13T13:13:05.704Z,101816.60
2023-05-13T13:15:33.572Z,101812.20
2023-05-13T13:18:01.499Z,101815.60
2023-05-13T13:20:29.543Z,101815.40
2023-05-13T13:22:57.521Z,101813.00
2023-05-13T13:25:25.408Z,101811.40
2023-05-13T13:27:53.190Z,101811.60
2023-05-13T13:30:21.078Z,101813.80
2023-05-13T13:32:48.936Z,101816.60
2023-05-13T13:35:16.837Z,101810.20
2023-05-13T13:37:44.593Z,101807.60
2023-05-13T13:40:13.787Z,101810.20
2023-05-13T13:42:44.552Z,101805.80
2023-05-13T13:45:14.317Z,101811.00
2023-05-13T13:47:43.195Z,101805.00
2023-05-13T13:50:11.530Z,101796.20
2023-05-13T13:52:39.375Z,101800.80
2023-05-13T13:55:07.855Z,101790.20
2023-05-13T13:57:35.654Z,101794.80
2023-05-13T14:00:05.172Z,101786.20
2023-05-13T14:02:33.232Z,101789.80
2023-05-13T14:05:01.383Z,101786.80
2023-05-13T14:07:29.397Z,101787.80
2023-05-13T14:09:59.546Z,101789.40
2023-05-13T14:12:28.834Z,101786.80
2023-05-13T14:14:56.713Z,101786.20
2023-05-13T14:17:24.756Z,101787.00
2023-05-13T14:19:55.501Z,101781.20
2023-05-13T14:22:24.576Z,101784.00
2023-05-13T14:24:52.835Z,101780.60
2023-05-13T14:27:22.036Z,101780.40
2023-05-13T14:29:50.699Z,101769.20
2023-05-13T14:32:18.601Z,101770.60
2023-05-13T14:34:46.551Z,101767.40
2023-05-13T14:37:14.410Z,101767.40
2023-05-13T14:39:42.359Z,101764.80
2023-05-13T14:42:11.783Z,101765.60
2023-05-13T14:44:41.615Z,101753.60
2023-05-13T14:47:10.737Z,101754.00
2023-05-13T14:49:38.597Z,101752.00
2023-05-13T14:52:06.482Z,101746.60
2023-05-13T14:54:37.036Z,101748.00
2023-05-13T14:57:06.744Z,101744.60
2023-05-13T14:59:34.735Z,101747.80
2023-05-13T15:02:04.282Z,101746.60
2023-05-13T15:04:32.261Z,101749.80
2023-05-13T15:07:03.703Z,101754.80
2023-05-13T15:09:31.688Z,101747.00
2023-05-13T15:11:59.592Z,101755.00
2023-05-13T15:14:27.342Z,101750.80
2023-05-13T15:16:55.478Z,101753.60
2023-05-13T15:19:23.342Z,101737.60
2023-05-13T15:21:51.249Z,101743.00
2023-05-13T15:24:19.114Z,101736.20
2023-05-13T15:26:50.712Z,101742.00
2023-05-13T15:29:18.865Z,101738.80
2023-05-13T15:31:51.109Z,101735.00
2023-05-13T15:34:18.884Z,101737.20
2023-05-13T15:36:46.706Z,101734.40
2023-05-13T15:39:14.582Z,101738.40
2023-05-13T15:41:43.504Z,101740.60
2023-05-13T15:44:11.413Z,101734.60
2023-05-13T15:46:39.494Z,101734.60
2023-05-13T15:49:07.413Z,101743.80
2023-05-13T15:51:35.958Z,101739.80
2023-05-13T15:54:04.076Z,101737.60
2023-05-13T15:56:31.966Z,101740.20
2023-05-13T15:58:59.888Z,101736.00
2023-05-13T16:01:27.862Z,101734.60
2023-05-13T16:03:56.157Z,101738.20
2023-05-13T16:06:26.985Z,101735.60
2023-05-13T16:08:56.466Z,101740.20
2023-05-13T16:11:24.773Z,101725.40
2023-05-13T16:13:52.995Z,101725.20
2023-05-13T16:16:21.688Z,101729.60
2023-05-13T16:18:49.952Z,101720.60
2023-05-13T16:21:18.223Z,101727.00
2023-05-13T16:23:47.015Z,101726.40
2023-05-13T16:26:15.160Z,101722.40
2023-05-13T16:28:43.250Z,101708.00
2023-05-13T16:31:11.255Z,101715.40
2023-05-13T16:33:39.221Z,101713.40
2023-05-13T16:36:10.137Z,101713.20
2023-05-13T16:38:41.774Z,101705.60
2023-05-13T16:41:11.008Z,101707.00
2023-05-13T16:43:38.836Z,101700.40
2023-05-13T16:46:06.803Z,101704.20
2023-05-13T16:48:34.618Z,101703.40
2023-05-13T16:51:03.871Z,101697.60
2023-05-13T16:53:33.521Z,101699.80
2023-05-13T16:56:01.436Z,101696.60
2023-05-13T16:58:29.451Z,101699.80
2023-05-13T17:00:59.243Z,101703.20
2023-05-13T17:03:27.967Z,101705.40
2023-05-13T17:05:55.925Z,101704.20
2023-05-13T17:08:24.604Z,101706.00
2023-05-13T17:10:52.431Z,101705.60
2023-05-13T17:13:20.666Z,101708.60
2023-05-13T17:15:48.667Z,101704.00
2023-05-13T17:18:16.548Z,101708.80
2023-05-13T17:20:45.826Z,101705.80
2023-05-13T17:23:13.741Z,101712.20
2023-05-13T17:25:41.656Z,101711.80
2023-05-13T17:28:09.604Z,101721.00
2023-05-13T17:30:37.550Z,101719.40
2023-05-13T17:33:05.551Z,101723.20
2023-05-13T17:35:33.390Z,101736.80
2023-05-13T17:38:01.218Z,101743.60
2023-05-13T17:40:29.157Z,101752.00
2023-05-13T17:42:57.267Z,101754.20
2023-05-13T17:45:25.237Z,101756.00
2023-05-13T17:47:53.078Z,101754.00
2023-05-13T17:50:21.460Z,101756.20
2023-05-13T17:52:50.105Z,101766.00
2023-05-13T17:55:18.035Z,101790.40
2023-05-13T17:57:45.940Z,101777.20
2023-05-13T18:00:14.776Z,101774.20
2023-05-13T18:02:52.581Z,101767.60
2023-05-13T18:05:23.626Z,101761.80
2023-05-13T18:07:51.603Z,101768.60
2023-05-13T18:10:19.509Z,101775.00
2023-05-13T18:12:47.564Z,101772.20
2023-05-13T18:15:15.621Z,101779.20
2023-05-13T18:17:43.871Z,101779.60
2023-05-13T18:20:13.302Z,101783.80
2023-05-13T18:22:41.139Z,101783.40
2023-05-13T18:25:10.462Z,101790.80
2023-05-13T18:27:38.557Z,101785.80
2023-05-13T18:30:07.813Z,101782.60
2023-05-13T18:32:35.713Z,101781.40
2023-05-13T18:35:03.941Z,101786.40
2023-05-13T18:37:31.748Z,101786.00
2023-05-13T18:39:59.848Z,101790.20
2023-05-13T18:42:29.692Z,101792.00
2023-05-13T18:44:57.735Z,101798.00
2023-05-13T18:47:25.624Z,101792.80
2023-05-13T18:49:53.499Z,101792.60
2023-05-13T18:52:21.625Z,101794.00
2023-05-13T18:54:49.477Z,101798.00
2023-05-13T18:57:18.117Z,101789.60
2023-05-13T18:59:46.143Z,101794.40
2023-05-13T19:02:14.320Z,101815.00
2023-05-13T19:04:42.728Z,101800.20
2023-05-13T19:07:10.581Z,101776.80
2023-05-13T19:09:38.555Z,101763.40
2023-05-13T19:12:07.700Z,101752.60
2023-05-13T19:14:35.862Z,101739.00
2023-05-13T19:17:04.077Z,101731.60
2023-05-13T19:19:32.025Z,101726.60
2023-05-13T19:21:59.760Z,101730.20
2023-05-13T19:24:27.588Z,101731.00
2023-05-13T19:26:55.798Z,101730.00
2023-05-13T19:29:23.695Z,101737.60
2023-05-13T19:31:51.914Z,101742.40
2023-05-13T19:34:20.048Z,101743.60
2023-05-13T19:36:48.034Z,101746.00
2023-05-13T19:39:15.784Z,101759.60
2023-05-13T19:41:43.681Z,101760.20
2023-05-13T19:44:14.684Z,101766.00
2023-05-13T19:46:42.814Z,101769.00
2023-05-13T19:49:13.622Z,101772.80
2023-05-13T19:51:42.086Z,101771.60
2023-05-13T19:54:14.434Z,101765.60
2023-05-13T19:56:42.775Z,101764.80
2023-05-13T19:59:10.640Z,101760.00
2023-05-13T20:01:38.512Z,101759.40
2023-05-13T20:04:09.158Z,101759.40
2023-05-13T20:06:37.530Z,101760.00
2023-05-13T20:09:05.963Z,101757.60
2023-05-13T20:11:34.156Z,101756.40
2023-05-13T20:14:02.301Z,101756.80
2023-05-13T20:16:30.078Z,101757.20
2023-05-13T20:18:57.902Z,101758.40
2023-05-13T20:21:25.858Z,101752.80
2023-05-13T20:23:53.948Z,101756.00
2023-05-13T20:26:22.208Z,101755.40
2023-05-13T20:28:52.085Z,101750.00
2023-05-13T20:31:19.971Z,101749.40
2023-05-13T20:33:47.985Z,101752.00
2023-05-13T20:36:15.900Z,101756.80
2023-05-13T20:38:44.011Z,101761.00
2023-05-13T20:41:11.800Z,101763.80
2023-05-13T20:43:41.715Z,101762.20
2023-05-13T20:46:13.141Z,101759.40
2023-05-13T20:48:40.951Z,101758.60
2023-05-13T20:51:08.997Z,101752.40
2023-05-13T20:53:37.450Z,101752.80
2023-05-13T20:56:06.560Z,101751.20
2023-05-13T20:58:34.407Z,101747.40
2023-05-13T21:01:02.732Z,101748.00
2023-05-13T21:03:30.640Z,101748.40
2023-05-13T21:05:58.595Z,101748.60
2023-05-13T21:08:27.466Z,101741.40
2023-05-13T21:10:56.477Z,101748.80
2023-05-13T21:13:28.198Z,101741.40
2023-05-13T21:15:57.453Z,101742.60
2023-05-13T21:18:25.975Z,101741.60
2023-05-13T21:20:53.970Z,101739.60
2023-05-13T21:23:21.758Z,101737.60
2023-05-13T21:25:49.563Z,101738.20
2023-05-13T21:28:18.767Z,101739.00
2023-05-13T21:30:46.571Z,101745.20
2023-05-13T21:33:14.504Z,101743.00
2023-05-13T21:35:42.231Z,101744.00
2023-05-13T21:38:12.624Z,101740.40
2023-05-13T21:40:40.779Z,101743.60
2023-05-13T21:43:08.580Z,101739.20
2023-05-13T21:45:36.406Z,101732.40
2023-05-13T21:48:05.705Z,101736.80
2023-05-13T21:50:34.712Z,101736.60
2023-05-13T21:53:02.558Z,101739.00
2023-05-13T21:55:34.778Z,101738.60
2023-05-13T21:58:03.255Z,101738.20
2023-05-13T22:00:31.783Z,101738.80
2023-05-13T22:03:01.420Z,101737.80
2023-05-13T22:05:29.620Z,101744.20
2023-05-13T22:07:57.545Z,101743.80
2023-05-13T22:10:25.530Z,101740.00
2023-05-13T22:12:53.634Z,101741.60
2023-05-13T22:15:21.502Z,101734.20
2023-05-13T22:17:50.755Z,101736.00
2023-05-13T22:20:18.938Z,101732.20
2023-05-13T22:22:46.676Z,101731.40
2023-05-13T22:25:14.459Z,101732.20
2023-05-13T22:27:42.277Z,101731.80
2023-05-13T22:30:10.548Z,101731.40
2023-05-13T22:32:38.470Z,101732.60
2023-05-13T22:35:07.566Z,101734.20
2023-05-13T22:37:35.309Z,101731.00
2023-05-13T22:40:03.150Z,101733.40
2023-05-13T22:42:31.069Z,101730.80
2023-05-13T22:44:58.852Z,101731.40
2023-05-13T22:47:26.649Z,101730.00
2023-05-13T22:49:54.565Z,101734.00
2023-05-13T22:52:22.348Z,101730.80
2023-05-13T22:54:50.091Z,101727.20
2023-05-13T22:57:19.215Z,101729.60
2023-05-13T22:59:47.041Z,101725.20
2023-05-13T23:02:15.789Z,101727.20
2023-05-13T23:04:43.759Z,101726.80
2023-05-13T23:07:12.009Z,101727.00
2023-05-13T23:09:39.891Z,101724.20
2023-05-13T23:12:08.293Z,101720.80
2023-05-13T23:14:36.092Z,101716.80
2023-05-13T23:17:04.133Z,101716.60
2023-05-13T23:19:32.073Z,101721.80
2023-05-13T23:22:00.133Z,101724.20
2023-05-13T23:24:27.894Z,101720.80
2023-05-13T23:26:56.309Z,101718.60
2023-05-13T23:29:27.723Z,101729.20
2023-05-13T23:31:55.790Z,101725.80
2023-05-13T23:34:24.006Z,101730.60
2023-05-13T23:36:51.749Z,101727.00
2023-05-13T23:39:19.520Z,101732.80
2023-05-13T23:41:47.572Z,101720.20
2023-05-13T23:44:15.486Z,101718.60
2023-05-13T23:46:43.241Z,101712.60
2023-05-13T23:49:11.117Z,101715.60
2023-05-13T23:51:38.874Z,101712.60
2023-05-13T23:54:08.365Z,101706.80
2023-05-13T23:56:36.136Z,101709.00
2023-05-13T23:59:05.611Z,101702.60
